Time;durP1;ratioP1;P1;durP2;ratioP2;P2;SDS_P1;SDS_P2;PMS_P1;PMS_P2;Temp;Humidity;BMP_temperature;BMP_pressure;BME280_temperature;BME280_humidity;BME280_pressure;Samples;Min_cycle;Max_cycle;Signal;HPM_P1;HPM_P2
2023/03/30 00:02:11;;;;;;;6.32;3.05;;;;;;;9.85;93.74;100181.59;5109857;28;20602;-78
2023/03/30 00:04:37;;;;;;;5.70;3.35;;;;;;;9.84;94.46;100115.72;5104248;28;20066;-78
2023/03/30 00:07:04;;;;;;;5.53;2.90;;;;;;;9.78;95.79;100127.19;5107593;28;20038;-78
2023/03/30 00:09:31;;;;;;;9.20;3.10;;;;;;;9.73;95.65;100149.22;5108934;28;20036;-78
2023/03/30 00:12:02;;;;;;;4.03;2.30;;;;;;;9.66;96.30;100186.13;5106258;28;20046;-78
2023/03/30 00:14:30;;;;;;;5.57;2.38;;;;;;;9.61;96.73;100205.50;5106365;28;20031;-78
2023/03/30 00:16:56;;;;;;;5.85;2.13;;;;;;;9.59;96.27;100205.53;5087977;28;20062;-78
2023/03/30 00:19:21;;;;;;;5.10;2.63;;;;;;;9.46;99.00;100216.16;5103104;28;20509;-77
2023/03/30 00:21:48;;;;;;;6.97;3.13;;;;;;;9.31;99.58;100215.38;5106726;28;20032;-78
2023/03/30 00:24:14;;;;;;;6.25;2.78;;;;;;;9.21;100.00;100217.19;5106207;28;20066;-78
2023/03/30 00:26:39;;;;;;;5.68;2.90;;;;;;;9.20;100.00;100202.28;5089809;28;20089;-78
2023/03/30 00:29:05;;;;;;;5.40;2.70;;;;;;;9.25;100.00;100198.72;5100748;28;20062;-78
2023/03/30 00:31:30;;;;;;;5.22;2.20;;;;;;;9.30;100.00;100191.66;5105893;28;20063;-77
2023/03/30 00:33:55;;;;;;;5.85;2.60;;;;;;;9.33;100.00;100186.41;5108165;28;20036;-77
2023/03/30 00:36:22;;;;;;;6.38;2.88;;;;;;;9.39;100.00;100197.75;5089951;28;20037;-77
2023/03/30 00:38:47;;;;;;;5.45;2.97;;;;;;;9.39;100.00;100192.50;5106252;28;20035;-78
2023/03/30 00:41:14;;;;;;;4.90;2.20;;;;;;;9.44;100.00;100189.84;5090226;28;20059;-77
2023/03/30 00:44:04;;;;;;;6.47;2.70;;;;;;;9.55;100.00;100187.13;5104360;28;20035;-78
2023/03/30 00:46:31;;;;;;;4.90;2.70;;;;;;;9.59;100.00;100173.91;5107247;28;20028;-78
2023/03/30 00:49:04;;;;;;;6.30;2.67;;;;;;;9.63;100.00;100143.13;5079292;28;20059;-78
2023/03/30 00:51:34;;;;;;;6.75;3.20;;;;;;;9.68;100.00;100158.91;5100935;28;20040;-77
2023/03/30 00:54:09;;;;;;;5.35;2.65;;;;;;;9.63;100.00;100146.63;5071915;28;20032;-78
2023/03/30 00:56:35;;;;;;;5.80;2.88;;;;;;;9.61;100.00;100145.78;5104705;28;20031;-77
2023/03/30 00:59:01;;;;;;;6.38;2.55;;;;;;;9.58;100.00;100129.13;5088646;28;20040;-77
2023/03/30 01:01:28;;;;;;;6.13;2.70;;;;;;;9.54;100.00;100125.66;5106336;28;20129;-78
2023/03/30 01:04:00;;;;;;;5.60;2.70;;;;;;;9.61;100.00;100123.81;5089489;28;20038;-78
2023/03/30 01:06:28;;;;;;;5.03;2.67;;;;;;;9.69;100.00;100110.59;5105125;28;20040;-78
2023/03/30 01:08:56;;;;;;;6.25;3.10;;;;;;;9.67;100.00;100102.72;5108557;28;20042;-78
2023/03/30 01:11:23;;;;;;;5.88;3.33;;;;;;;9.68;100.00;100096.53;5109070;28;20035;-78
2023/03/30 01:13:58;;;;;;;6.55;2.97;;;;;;;9.67;100.00;100092.19;5086791;28;20036;-78
2023/03/30 01:16:47;;;;;;;7.00;3.17;;;;;;;9.63;100.00;100091.31;5105938;28;20035;-78
2023/03/30 01:19:47;;;;;;;9.57;2.95;;;;;;;9.52;100.00;100100.22;5085217;28;20035;-78
2023/03/30 01:22:40;;;;;;;6.15;2.90;;;;;;;9.56;100.00;100101.91;5069843;28;20465;-78
2023/03/30 01:25:35;;;;;;;7.75;3.28;;;;;;;9.60;100.00;100096.63;5088198;28;20071;-78
2023/03/30 01:28:23;;;;;;;5.78;2.65;;;;;;;9.55;100.00;100065.94;5076344;28;20047;-78
2023/03/30 01:31:32;;;;;;;4.85;2.53;;;;;;;9.60;100.00;100059.72;5089395;28;20115;-78
2023/03/30 01:34:35;;;;;;;4.40;2.47;;;;;;;9.74;100.00;100056.06;5071998;28;20474;-77
2023/03/30 01:37:12;;;;;;;;;;;;;;;9.79;100.00;100060.41;5107538;28;20036;-78
2023/03/30 01:39:52;;;;;;;6.90;3.10;;;;;;;9.74;100.00;100035.88;5083689;28;19968;-78
2023/03/30 01:42:34;;;;;;;9.07;3.22;;;;;;;9.72;100.00;100047.31;5102424;28;20024;-78
2023/03/30 01:45:22;;;;;;;8.07;3.38;;;;;;;9.73;99.95;100035.91;5103445;28;20109;-78
2023/03/30 01:47:58;;;;;;;6.07;3.75;;;;;;;9.73;99.54;100038.53;5102672;28;20115;-78
2023/03/30 01:50:35;;;;;;;6.85;3.13;;;;;;;9.72;98.57;100042.03;5099837;28;20031;-77
2023/03/30 01:53:06;;;;;;;5.93;3.40;;;;;;;9.72;98.20;100042.94;5104876;28;20035;-78
2023/03/30 01:55:36;;;;;;;6.32;2.85;;;;;;;9.70;98.30;100038.56;5106324;28;20028;-77
2023/03/30 01:58:09;;;;;;;4.88;2.90;;;;;;;9.69;97.88;100032.41;5106690;28;20092;-78
2023/03/30 02:00:37;;;;;;;5.40;2.90;;;;;;;9.63;98.80;100033.34;5094114;28;20086;-78
2023/03/30 02:03:13;;;;;;;4.65;2.63;;;;;;;9.65;98.12;100021.03;5088126;28;20023;-78
2023/03/30 02:05:41;;;;;;;5.97;2.58;;;;;;;9.63;97.91;100017.53;5086451;28;20031;-78
2023/03/30 02:08:10;;;;;;;5.65;2.80;;;;;;;9.53;98.14;100012.38;5074244;28;20035;-78
2023/03/30 02:10:37;;;;;;;8.20;3.15;;;;;;;9.48;98.70;100019.47;5090853;28;20468;-78
2023/03/30 02:13:04;;;;;;;5.55;3.13;;;;;;;9.34;99.41;100019.59;5082158;28;20066;-78
2023/03/30 02:15:37;;;;;;;5.53;2.97;;;;;;;9.30;99.89;100033.66;5089505;28;20042;-77
2023/03/30 02:18:03;;;;;;;6.65;2.92;;;;;;;9.30;99.99;100031.03;5088724;28;20080;-78
2023/03/30 02:20:30;;;;;;;6.20;2.97;;;;;;;9.26;99.97;100021.44;5067861;28;20028;-78
2023/03/30 02:22:56;;;;;;;5.65;3.05;;;;;;;9.25;99.03;100009.13;5105352;28;20130;-78
2023/03/30 02:25:22;;;;;;;5.43;2.85;;;;;;;9.17;99.41;100007.47;5105762;28;20055;-78
2023/03/30 02:27:48;;;;;;;6.05;3.05;;;;;;;9.12;99.53;100003.13;5088113;28;20096;-78
2023/03/30 02:30:13;;;;;;;6.07;2.97;;;;;;;9.06;100.00;100008.44;5105605;28;20036;-78
2023/03/30 02:32:46;;;;;;;6.28;2.80;;;;;;;9.06;100.00;100011.94;5087349;28;20046;-77
2023/03/30 02:35:35;;;;;;;;;;;;;;;8.92;100.00;100005.91;5105372;28;20028;-77
2023/03/30 02:38:28;;;;;;;5.47;2.22;;;;;;;8.83;100.00;100012.13;5091890;28;19967;-78
2023/03/30 02:41:36;;;;;;;5.70;2.45;;;;;;;8.81;100.00;100002.50;5087916;28;20036;-78
2023/03/30 02:44:10;;;;;;;6.15;2.60;;;;;;;8.89;100.00;99995.41;5081983;28;20043;-78
2023/03/30 02:47:13;;;;;;;4.90;2.60;;;;;;;8.96;100.00;99976.03;5085430;28;20036;-78
2023/03/30 02:49:56;;;;;;;5.97;2.47;;;;;;;9.03;100.00;99969.84;5068212;28;20097;-78
2023/03/30 02:52:54;;;;;;;5.22;2.25;;;;;;;9.06;100.00;99969.81;5083232;28;20032;-78
2023/03/30 02:55:33;;;;;;;7.75;3.83;;;;;;;9.01;100.00;99958.44;5094350;28;20382;-78
2023/03/30 02:58:22;;;;;;;6.93;3.28;;;;;;;8.87;100.00;99955.06;5084947;22;20045;-75
2023/03/30 03:01:04;;;;;;;5.82;2.78;;;;;;;8.91;100.00;99935.75;5050668;28;20037;-76
2023/03/30 03:03:45;;;;;;;5.40;2.80;;;;;;;8.87;100.00;99932.25;5064792;28;20043;-75
2023/03/30 03:06:13;;;;;;;6.05;3.08;;;;;;;8.86;100.00;99927.03;5064140;28;20491;-75
2023/03/30 03:08:46;;;;;;;;;;;;;;;8.80;100.00;99930.56;5047658;28;20077;-75
2023/03/30 03:11:15;;;;;;;4.40;2.53;;;;;;;8.90;100.00;99928.72;5063273;28;19999;-76
2023/03/30 03:13:42;;;;;;;7.20;2.83;;;;;;;8.94;100.00;99926.06;5046507;28;20471;-75
2023/03/30 03:16:10;;;;;;;8.18;3.08;;;;;;;8.87;100.00;99927.00;5068105;28;20093;-75
2023/03/30 03:18:43;;;;;;;4.20;2.35;;;;;;;8.85;100.00;99925.25;5047151;28;20538;-75
2023/03/30 03:21:12;;;;;;;6.93;2.70;;;;;;;8.74;100.00;99917.47;5049608;28;20025;-75
2023/03/30 03:23:38;;;;;;;5.78;2.55;;;;;;;8.68;100.00;99907.88;5046730;28;20110;-75
2023/03/30 03:26:08;;;;;;;6.65;2.47;;;;;;;8.69;100.00;99906.09;5047790;28;20035;-75
2023/03/30 03:28:34;;;;;;;6.85;2.80;;;;;;;8.65;100.00;99902.63;5045403;28;20028;-75
2023/03/30 03:31:05;;;;;;;6.43;3.25;;;;;;;8.54;100.00;99905.38;5044854;28;20029;-75
2023/03/30 03:33:32;;;;;;;5.43;2.67;;;;;;;8.55;100.00;99909.72;5047367;28;20059;-75
2023/03/30 03:36:10;;;;;;;7.32;2.83;;;;;;;8.53;100.00;99897.47;5051391;28;20033;-75
2023/03/30 03:38:40;;;;;;;6.90;3.47;;;;;;;8.58;100.00;99902.69;5044880;28;20028;-74
2023/03/30 03:41:06;;;;;;;6.88;2.72;;;;;;;8.56;100.00;99893.03;5053681;28;20029;-75
2023/03/30 03:43:31;;;;;;;6.50;3.08;;;;;;;8.49;100.00;99890.50;5049270;28;20033;-74
2023/03/30 03:45:57;;;;;;;6.10;3.10;;;;;;;8.33;100.00;99893.22;5055282;28;20537;-75
2023/03/30 03:48:23;;;;;;;6.55;3.45;;;;;;;8.27;100.00;99884.47;5050895;28;20028;-75
2023/03/30 03:50:57;;;;;;;6.68;3.63;;;;;;;8.21;100.00;99895.91;5044778;28;20032;-75
2023/03/30 03:53:26;;;;;;;11.13;5.63;;;;;;;8.21;100.00;99897.69;5050557;28;20029;-74
2023/03/30 03:55:54;;;;;;;7.80;4.68;;;;;;;8.33;100.00;99901.09;5059715;28;20514;-75
2023/03/30 03:58:20;;;;;;;9.68;4.80;;;;;;;8.39;100.00;99883.53;5044744;28;20036;-75
2023/03/30 04:00:46;;;;;;;8.35;5.05;;;;;;;8.21;100.00;99874.03;5046324;28;20059;-76
2023/03/30 04:03:11;;;;;;;10.70;5.40;;;;;;;8.19;100.00;99866.13;5043736;28;20784;-75
2023/03/30 04:05:37;;;;;;;7.97;5.53;;;;;;;8.22;100.00;99871.38;5047070;28;20028;-75
2023/03/30 04:08:04;;;;;;;7.68;4.93;;;;;;;8.23;100.00;99872.25;5047411;28;20047;-76
2023/03/30 04:10:30;;;;;;;9.02;5.68;;;;;;;8.33;100.00;99874.81;5045852;28;20070;-74
2023/03/30 04:13:14;;;;;;;9.65;5.25;;;;;;;8.27;100.00;99887.13;5064817;28;20043;-75
2023/03/30 04:15:50;;;;;;;9.25;5.57;;;;;;;8.25;100.00;99881.88;5046875;28;20029;-76
2023/03/30 04:18:32;;;;;;;9.13;5.85;;;;;;;8.23;100.00;99877.53;5066136;28;20074;-75
2023/03/30 04:21:19;;;;;;;11.18;6.93;;;;;;;8.04;100.00;99871.50;5055229;28;20051;-75
2023/03/30 04:23:47;;;;;;;11.40;6.10;;;;;;;7.86;100.00;99873.38;5064922;28;20071;-73
2023/03/30 04:26:31;;;;;;;8.73;6.75;;;;;;;7.83;100.00;99873.38;5070149;28;20059;-74
2023/03/30 04:29:06;;;;;;;9.32;6.45;;;;;;;7.75;100.00;99869.03;5053844;28;20039;-75
2023/03/30 04:31:34;;;;;;;9.95;7.45;;;;;;;7.75;100.00;99890.06;5063415;28;20044;-76
2023/03/30 04:34:08;;;;;;;9.40;5.90;;;;;;;7.80;100.00;99898.78;5044564;28;20044;-75
2023/03/30 04:36:54;;;;;;;10.15;6.05;;;;;;;7.92;100.00;99889.97;5046348;28;20036;-75
2023/03/30 04:39:43;;;;;;;8.70;6.25;;;;;;;7.93;100.00;99884.69;5053254;28;20029;-75
2023/03/30 04:42:29;;;;;;;8.95;6.03;;;;;;;7.90;100.00;99867.19;5043782;28;20033;-75
2023/03/30 04:45:18;;;;;;;11.07;6.72;;;;;;;7.88;100.00;99876.84;5025135;28;20041;-76
2023/03/30 04:48:03;;;;;;;10.48;7.03;;;;;;;7.91;100.00;99875.94;5063277;28;20048;-75
2023/03/30 04:50:49;;;;;;;12.98;9.68;;;;;;;8.01;100.00;99893.41;5064506;28;20466;-76
2023/03/30 04:53:29;;;;;;;13.77;9.57;;;;;;;7.98;100.00;99872.41;5050148;28;20032;-74
2023/03/30 04:56:03;;;;;;;12.45;7.57;;;;;;;7.97;100.00;99880.31;5068681;28;20048;-75
2023/03/30 04:58:57;;;;;;;12.07;7.50;;;;;;;7.97;100.00;99873.31;5049287;28;20051;-74
2023/03/30 05:01:54;;;;;;;9.90;7.13;;;;;;;8.08;100.00;99857.47;5039573;28;20047;-75
2023/03/30 05:04:38;;;;;;;16.88;11.10;;;;;;;8.16;100.00;99865.28;5065316;28;20402;-75
2023/03/30 05:07:36;;;;;;;11.82;8.02;;;;;;;8.13;100.00;99868.81;5038182;28;20055;-75
2023/03/30 05:10:23;;;;;;;10.45;7.55;;;;;;;8.03;100.00;99864.50;5049315;28;20060;-75
2023/03/30 05:13:09;;;;;;;8.68;6.70;;;;;;;8.10;100.00;99872.34;5059684;28;20055;-75
2023/03/30 05:16:04;;;;;;;11.18;8.27;;;;;;;8.15;100.00;99868.78;5052831;28;20095;-75
2023/03/30 05:19:05;;;;;;;12.80;10.20;;;;;;;8.22;100.00;99854.72;5023417;28;20434;-75
2023/03/30 05:21:42;;;;;;;16.73;11.15;;;;;;;8.36;100.00;99863.41;5042694;28;20049;-76
2023/03/30 05:24:37;;;;;;;15.13;11.90;;;;;;;8.56;100.00;99850.09;5053344;28;20094;-76
2023/03/30 05:27:21;;;;;;;13.65;10.55;;;;;;;8.68;100.00;99834.22;5063511;28;20047;-76
2023/03/30 05:30:10;;;;;;;14.25;10.95;;;;;;;8.75;100.00;99840.25;5049512;28;20422;-75
2023/03/30 05:32:44;;;;;;;15.85;12.18;;;;;;;8.91;100.00;99830.50;5042901;28;20040;-75
2023/03/30 05:35:28;;;;;;;16.60;12.02;;;;;;;8.98;100.00;99834.78;5042664;28;20503;-75
2023/03/30 05:38:09;;;;;;;17.08;13.25;;;;;;;9.04;100.00;99828.56;5052861;28;20024;-74
2023/03/30 05:40:55;;;;;;;20.13;13.82;;;;;;;9.05;100.00;99828.56;5014062;28;20051;-76
2023/03/30 05:43:41;;;;;;;16.42;11.90;;;;;;;9.16;100.00;99821.41;5049349;28;20041;-76
2023/03/30 05:46:33;;;;;;;14.53;11.20;;;;;;;9.23;100.00;99818.72;5045308;28;20051;-75
2023/03/30 05:49:21;;;;;;;15.63;10.30;;;;;;;9.28;100.00;99803.75;5051805;28;20078;-76
2023/03/30 05:52:04;;;;;;;17.58;11.57;;;;;;;9.30;100.00;99809.84;5052126;28;20040;-75
2023/03/30 05:54:49;;;;;;;17.88;12.35;;;;;;;9.36;100.00;99797.47;5063717;28;20055;-75
2023/03/30 05:57:27;;;;;;;17.52;12.40;;;;;;;9.50;100.00;99805.19;5059591;28;20029;-75
2023/03/30 06:00:09;;;;;;;14.20;11.63;;;;;;;9.76;100.00;99801.31;5052519;28;20047;-75
2023/03/30 06:02:42;;;;;;;17.30;12.68;;;;;;;9.94;100.00;99801.06;5052885;28;20717;-76
2023/03/30 06:05:12;;;;;;;17.52;13.52;;;;;;;10.13;100.00;99821.84;5061171;28;20063;-75
2023/03/30 06:07:41;;;;;;;20.10;14.25;;;;;;;10.18;99.02;99834.06;5041764;28;20029;-75
2023/03/30 06:10:07;;;;;;;19.77;11.68;;;;;;;10.33;98.21;99840.91;5051633;28;20033;-73
2023/03/30 06:12:33;;;;;;;15.50;12.02;;;;;;;10.43;96.79;99836.38;5050704;28;20041;-72
2023/03/30 06:15:01;;;;;;;15.73;12.45;;;;;;;10.44;96.74;99827.53;5052365;28;20032;-72
2023/03/30 06:17:45;;;;;;;16.00;12.80;;;;;;;10.55;96.19;99830.00;5046477;28;20025;-73
2023/03/30 06:20:11;;;;;;;18.88;12.60;;;;;;;10.64;96.64;99819.28;5047838;28;20037;-73
2023/03/30 06:22:43;;;;;;;15.43;10.45;;;;;;;10.69;97.19;99818.31;5048744;28;20562;-73
2023/03/30 06:25:12;;;;;;;;;;;;;;;10.76;96.16;99805.84;5044070;28;20055;-73
2023/03/30 06:27:39;;;;;;;15.82;10.00;;;;;;;10.83;96.66;99809.25;5051258;28;19912;-73
2023/03/30 06:30:05;;;;;;;16.60;11.90;;;;;;;10.88;96.62;99813.56;5042190;28;20530;-73
2023/03/30 06:32:31;;;;;;;15.63;11.38;;;;;;;10.94;96.22;99808.16;5050943;28;20032;-73
2023/03/30 06:35:16;;;;;;;16.10;11.18;;;;;;;11.06;95.93;99795.63;5044219;28;20036;-73
2023/03/30 06:37:43;;;;;;;18.80;11.32;;;;;;;11.14;95.38;99793.69;5050155;28;20058;-72
2023/03/30 06:40:12;;;;;;;13.02;9.68;;;;;;;11.26;94.26;99776.72;5047191;28;20032;-73
2023/03/30 06:42:40;;;;;;;17.15;10.82;;;;;;;11.38;94.45;99777.31;5048550;28;20025;-73
2023/03/30 06:45:31;;;;;;;;;;;;;;;11.52;92.65;99768.22;5061043;28;20029;-73
2023/03/30 06:47:57;;;;;;;16.77;11.02;;;;;;;11.57;92.45;99764.56;5052981;28;19998;-74
2023/03/30 06:50:22;;;;;;;15.82;11.18;;;;;;;11.65;92.54;99764.41;5049913;28;20624;-73
2023/03/30 06:52:51;;;;;;;14.32;8.65;;;;;;;11.75;91.75;99762.44;5049161;28;20534;-73
2023/03/30 06:55:17;;;;;;;18.08;12.30;;;;;;;11.84;90.68;99752.50;5047901;28;20033;-72
2023/03/30 06:57:44;;;;;;;16.25;10.90;;;;;;;11.89;90.48;99752.41;5050374;28;20466;-73
2023/03/30 07:00:14;;;;;;;13.68;9.25;;;;;;;11.99;89.90;99748.66;5046827;28;20066;-73
2023/03/30 07:02:43;;;;;;;13.48;7.88;;;;;;;12.04;88.29;99743.25;5062547;28;20110;-73
2023/03/30 07:05:23;;;;;;;12.18;7.72;;;;;;;11.99;88.14;99737.19;5048111;28;20111;-74
2023/03/30 07:07:59;;;;;;;13.48;7.75;;;;;;;12.07;88.55;99737.88;5047909;28;20086;-74
2023/03/30 07:10:24;;;;;;;12.27;6.57;;;;;;;12.13;87.79;99740.38;5048716;28;20028;-74
2023/03/30 07:12:53;;;;;;;10.68;6.10;;;;;;;12.25;87.38;99729.47;5044269;28;20029;-73
2023/03/30 07:15:20;;;;;;;10.57;5.97;;;;;;;12.42;86.64;99728.19;5050132;28;20068;-73
2023/03/30 07:17:47;;;;;;;11.10;5.45;;;;;;;12.57;85.62;99730.41;5053935;28;20024;-73
2023/03/30 07:20:15;;;;;;;11.23;5.07;;;;;;;12.72;84.04;99732.63;5063553;28;20095;-73
2023/03/30 07:23:20;;;;;;;8.65;4.65;;;;;;;12.83;83.85;99727.03;5051912;28;20098;-74
2023/03/30 07:25:47;;;;;;;8.05;3.85;;;;;;;12.79;83.37;99716.59;5047485;28;20120;-73
2023/03/30 07:28:16;;;;;;;10.43;4.40;;;;;;;12.72;81.94;99721.19;5047563;28;20033;-73
2023/03/30 07:30:43;;;;;;;7.88;3.33;;;;;;;12.80;82.34;99720.97;5062126;28;20032;-73
2023/03/30 07:33:10;;;;;;;5.68;3.00;;;;;;;12.88;81.67;99711.03;5055082;28;20029;-74
2023/03/30 07:35:42;;;;;;;6.15;2.92;;;;;;;13.03;81.40;99707.94;5045494;28;20032;-73
2023/03/30 07:38:07;;;;;;;7.30;3.00;;;;;;;13.21;81.66;99700.38;5033494;28;20652;-73
2023/03/30 07:40:40;;;;;;;5.95;2.80;;;;;;;13.38;80.69;99698.06;5054137;28;20041;-73
2023/03/30 07:43:06;;;;;;;5.70;3.13;;;;;;;13.56;80.69;99697.50;5052153;28;20119;-73
2023/03/30 07:45:32;;;;;;;13.35;4.80;;;;;;;13.74;80.39;99689.88;5050132;28;20056;-73
2023/03/30 07:47:58;;;;;;;11.95;4.38;;;;;;;14.00;80.88;99692.53;5054922;28;20025;-73
2023/03/30 07:50:24;;;;;;;7.55;3.22;;;;;;;14.33;79.89;99696.72;5051814;28;20036;-73
2023/03/30 07:52:51;;;;;;;12.10;4.40;;;;;;;14.68;78.78;99699.03;5045177;28;20119;-73
2023/03/30 07:55:18;;;;;;;6.78;3.20;;;;;;;14.92;76.13;99696.41;5050871;28;20025;-73
2023/03/30 07:57:51;;;;;;;8.63;3.70;;;;;;;15.10;74.07;99697.50;5051313;28;20035;-74
2023/03/30 08:00:17;;;;;;;10.50;4.22;;;;;;;15.34;73.63;99695.69;5064827;28;20037;-74
2023/03/30 08:03:06;;;;;;;9.75;3.35;;;;;;;15.75;72.12;99688.75;5061191;28;20084;-74
2023/03/30 08:05:31;;;;;;;10.30;4.03;;;;;;;16.00;72.19;99695.72;5054903;28;20055;-74
2023/03/30 08:08:06;;;;;;;8.07;3.05;;;;;;;16.17;69.32;99695.91;5047167;28;20028;-74
2023/03/30 08:10:34;;;;;;;7.30;2.75;;;;;;;16.38;69.68;99693.25;5050932;28;20495;-73
2023/03/30 08:13:00;;;;;;;10.38;2.72;;;;;;;16.50;70.11;99681.19;5054832;28;20402;-74
2023/03/30 08:15:26;;;;;;;7.70;2.70;;;;;;;16.69;68.01;99694.53;5052560;28;20039;-74
2023/03/30 08:17:52;;;;;;;7.32;2.15;;;;;;;16.79;68.19;99691.47;5069966;28;20041;-73
2023/03/30 08:20:18;;;;;;;9.88;2.20;;;;;;;16.95;68.99;99696.97;5061570;28;20037;-74
2023/03/30 08:22:43;;;;;;;5.97;2.03;;;;;;;17.07;67.81;99692.84;5063659;28;20043;-74
2023/03/30 08:25:08;;;;;;;7.13;2.53;;;;;;;17.09;67.62;99696.31;5064536;28;20111;-72
2023/03/30 08:27:34;;;;;;;7.40;2.33;;;;;;;16.98;67.99;99696.81;5066819;28;20148;-74
2023/03/30 08:29:59;;;;;;;6.20;2.65;;;;;;;16.80;68.19;99702.97;5064091;28;20115;-74
2023/03/30 08:32:25;;;;;;;8.07;2.28;;;;;;;16.75;68.66;99694.28;5063594;28;20107;-73
2023/03/30 08:34:52;;;;;;;6.90;2.30;;;;;;;16.68;68.54;99695.50;5061018;28;20537;-74
2023/03/30 08:37:18;;;;;;;6.43;1.95;;;;;;;16.58;68.19;99693.25;5064221;28;20037;-74
2023/03/30 08:39:43;;;;;;;7.05;1.88;;;;;;;16.55;70.19;99696.03;5063980;28;20377;-74
2023/03/30 08:42:25;;;;;;;7.70;2.42;;;;;;;16.52;69.84;99698.81;5051082;28;20501;-74
2023/03/30 08:44:56;;;;;;;8.35;2.45;;;;;;;16.59;70.00;99697.63;5062529;28;20040;-74
2023/03/30 08:47:32;;;;;;;5.47;2.63;;;;;;;16.68;69.82;99706.16;5064918;28;20037;-74
2023/03/30 08:50:26;;;;;;;8.10;3.20;;;;;;;16.67;69.37;99715.09;5061201;28;20317;-73
2023/03/30 08:52:52;;;;;;;6.85;2.42;;;;;;;16.52;70.15;99717.47;5054154;28;20048;-73
2023/03/30 08:55:25;;;;;;;5.72;2.47;;;;;;;16.39;70.86;99718.94;5065965;28;20131;-73
2023/03/30 08:58:01;;;;;;;6.55;2.78;;;;;;;16.33;71.31;99716.53;5063887;28;20037;-74
2023/03/30 09:00:42;;;;;;;5.07;2.20;;;;;;;16.37;70.83;99723.44;5060840;28;20040;-74
2023/03/30 09:03:14;;;;;;;9.10;2.42;;;;;;;16.38;71.45;99734.06;5061639;28;20039;-73
2023/03/30 09:05:44;;;;;;;;;;;;;;;16.36;71.91;99737.72;5043766;28;20054;-73
2023/03/30 09:08:18;;;;;;;7.00;2.85;;;;;;;16.23;72.17;99737.34;5069227;28;20310;-74
2023/03/30 09:10:51;;;;;;;9.68;2.80;;;;;;;16.25;72.26;99747.97;5064077;28;20418;-73
2023/03/30 09:13:17;;;;;;;;;;;;;;;16.13;70.78;99736.88;5062841;28;20037;-74
2023/03/30 09:16:19;;;;;;;6.70;2.08;;;;;;;16.20;70.94;99734.84;5060468;28;19949;-74
2023/03/30 09:18:48;;;;;;;7.43;2.58;;;;;;;16.29;69.58;99744.22;5039751;28;20419;-73
2023/03/30 09:21:14;;;;;;;8.18;2.58;;;;;;;16.27;69.15;99731.00;5045648;28;20024;-74
2023/03/30 09:23:40;;;;;;;9.90;2.33;;;;;;;16.28;68.56;99730.03;5059726;28;20047;-74
2023/03/30 09:26:27;;;;;;;8.18;2.15;;;;;;;16.29;68.55;99733.56;5063412;28;20025;-74
2023/03/30 09:29:13;;;;;;;9.90;2.53;;;;;;;16.31;67.64;99721.91;5062197;28;20048;-73
2023/03/30 09:31:45;;;;;;;7.50;2.33;;;;;;;16.28;67.72;99737.19;5063191;28;20101;-73
2023/03/30 09:34:26;;;;;;;8.18;2.53;;;;;;;16.34;67.92;99736.91;5060484;28;20037;-73
2023/03/30 09:36:59;;;;;;;5.82;1.80;;;;;;;16.34;68.03;99731.56;5063061;28;20040;-74
2023/03/30 09:39:27;;;;;;;8.98;2.63;;;;;;;16.28;69.05;99731.84;5062930;28;20032;-73
2023/03/30 09:42:26;;;;;;;10.55;2.83;;;;;;;16.34;68.89;99734.25;5052784;28;20510;-73
2023/03/30 09:44:59;;;;;;;7.38;2.55;;;;;;;16.39;68.81;99729.59;5059823;28;20410;-74
2023/03/30 09:47:34;;;;;;;7.75;2.50;;;;;;;16.34;69.31;99734.25;5063143;28;20495;-74
2023/03/30 09:50:25;;;;;;;5.15;2.20;;;;;;;16.26;69.66;99739.03;5060845;28;20558;-74
2023/03/30 09:52:58;;;;;;;6.83;2.87;;;;;;;16.23;70.44;99734.69;5042885;28;20060;-74
2023/03/30 09:55:30;;;;;;;8.57;2.55;;;;;;;16.31;69.52;99737.03;5061732;28;20295;-74
2023/03/30 09:58:12;;;;;;;8.60;3.30;;;;;;;16.18;69.85;99753.53;5066005;28;20024;-74
2023/03/30 10:00:38;;;;;;;;;;;;;;;16.18;69.69;99752.66;5068975;28;20044;-73
2023/03/30 10:03:17;;;;;;;9.10;2.55;;;;;;;16.10;70.41;99744.13;5066342;28;19912;-73
2023/03/30 10:05:42;;;;;;;6.10;2.08;;;;;;;16.08;70.11;99762.81;5066616;28;20073;-73
2023/03/30 10:08:26;;;;;;;9.52;2.60;;;;;;;16.14;70.31;99751.94;5064949;28;20516;-74
2023/03/30 10:10:56;;;;;;;7.00;2.70;;;;;;;16.15;71.85;99753.66;5066877;28;20040;-74
2023/03/30 10:13:32;;;;;;;8.23;2.50;;;;;;;16.00;72.11;99759.59;5066808;28;20487;-74
2023/03/30 10:16:04;;;;;;;9.63;2.90;;;;;;;15.83;74.00;99764.75;5064169;28;20075;-73
2023/03/30 10:18:37;;;;;;;8.88;2.40;;;;;;;15.71;76.64;99758.09;5071650;28;20441;-73
2023/03/30 10:21:06;;;;;;;9.68;2.45;;;;;;;15.45;77.64;99767.06;5067993;28;20024;-73
2023/03/30 10:23:38;;;;;;;9.52;2.95;;;;;;;15.31;80.21;99787.06;5056274;28;20536;-73
2023/03/30 10:26:12;;;;;;;7.60;2.95;;;;;;;15.13;82.08;99779.78;5066910;28;20083;-74
2023/03/30 10:28:37;;;;;;;9.13;2.85;;;;;;;15.15;82.80;99780.59;5065460;28;20040;-72
2023/03/30 10:31:13;;;;;;;9.40;3.15;;;;;;;15.01;84.14;99769.59;5070751;28;20033;-74
2023/03/30 10:33:41;;;;;;;8.35;2.10;;;;;;;14.83;86.62;99787.09;5070373;28;20422;-73
2023/03/30 10:36:08;;;;;;;7.10;2.10;;;;;;;14.74;87.88;99782.09;5062694;28;20033;-73
2023/03/30 10:38:35;;;;;;;9.02;2.88;;;;;;;14.62;89.64;99776.28;5066494;28;20044;-73
2023/03/30 10:41:14;;;;;;;8.65;3.08;;;;;;;14.48;91.46;99766.09;5066393;28;20033;-73
2023/03/30 10:43:40;;;;;;;7.32;2.30;;;;;;;14.41;92.97;99767.25;5064467;28;20047;-73
2023/03/30 10:46:28;;;;;;;4.80;2.33;;;;;;;14.46;92.85;99764.41;5071091;28;20039;-73
2023/03/30 10:49:15;;;;;;;10.48;2.65;;;;;;;14.40;94.31;99760.19;5065606;28;20068;-73
2023/03/30 10:51:53;;;;;;;7.95;2.63;;;;;;;14.55;94.61;99769.44;5050318;28;20128;-74
2023/03/30 10:54:31;;;;;;;11.18;3.22;;;;;;;14.63;94.58;99761.22;5065205;28;20036;-73
2023/03/30 10:57:05;;;;;;;7.75;2.65;;;;;;;14.55;95.12;99765.94;5064797;28;20024;-73
2023/03/30 10:59:59;;;;;;;6.53;2.25;;;;;;;14.42;96.67;99762.78;5053623;28;20111;-73
2023/03/30 11:02:48;;;;;;;10.65;2.50;;;;;;;14.32;97.73;99767.53;5068657;28;20040;-74
2023/03/30 11:05:24;;;;;;;6.72;2.38;;;;;;;14.28;96.49;99762.38;5063097;28;20386;-74
2023/03/30 11:08:27;;;;;;;9.20;2.70;;;;;;;14.28;95.90;99755.31;5070265;28;20050;-73
2023/03/30 11:10:55;;;;;;;11.52;3.67;;;;;;;14.36;94.86;99747.94;5062808;28;20033;-73
2023/03/30 11:13:25;;;;;;;9.23;3.28;;;;;;;14.39;94.42;99746.97;5058562;28;20045;-74
2023/03/30 11:15:56;;;;;;;7.93;2.80;;;;;;;14.40;93.29;99744.25;5067248;28;20040;-73
2023/03/30 11:18:30;;;;;;;8.60;2.50;;;;;;;14.43;92.41;99744.13;5066092;28;20059;-74
2023/03/30 11:21:20;;;;;;;9.68;2.80;;;;;;;14.50;95.27;99749.25;5064492;28;20036;-73
2023/03/30 11:23:54;;;;;;;8.38;3.95;;;;;;;14.51;95.19;99737.72;5064611;28;20098;-73
2023/03/30 11:26:28;;;;;;;8.18;2.50;;;;;;;14.50;94.99;99749.25;5047948;28;20029;-74
2023/03/30 11:29:23;;;;;;;5.25;2.40;;;;;;;14.69;94.05;99740.59;5064233;28;20051;-74
2023/03/30 11:32:33;;;;;;;9.15;3.40;;;;;;;14.97;93.08;99734.31;5063181;28;20048;-73
2023/03/30 11:35:18;;;;;;;9.38;3.00;;;;;;;15.46;89.61;99736.91;5065258;28;20641;-74
2023/03/30 11:37:47;;;;;;;8.85;3.05;;;;;;;15.85;86.74;99722.97;5063232;28;20487;-74
2023/03/30 11:40:24;;;;;;;5.40;2.22;;;;;;;16.25;83.01;99721.34;5064235;28;20050;-74
2023/03/30 11:42:50;;;;;;;7.47;2.67;;;;;;;16.52;82.19;99713.94;5067181;28;20039;-74
2023/03/30 11:45:42;;;;;;;9.23;2.70;;;;;;;16.54;80.70;99707.63;5051691;28;20115;-74
2023/03/30 11:48:44;;;;;;;7.63;2.72;;;;;;;16.58;78.95;99697.69;5068025;28;20127;-74
2023/03/30 11:51:40;;;;;;;7.90;2.70;;;;;;;16.49;78.56;99687.44;5065231;28;20032;-74
2023/03/30 11:54:24;;;;;;;6.20;2.78;;;;;;;16.78;77.53;99686.19;5053433;28;20429;-74
2023/03/30 11:56:56;;;;;;;4.70;2.75;;;;;;;16.95;76.22;99674.75;5064289;28;20040;-73
2023/03/30 11:59:35;;;;;;;10.77;3.47;;;;;;;17.13;76.00;99678.34;5065689;28;20088;-74
2023/03/30 12:02:36;;;;;;;9.23;2.83;;;;;;;16.92;76.60;99674.88;5061543;28;20096;-74
2023/03/30 12:05:22;;;;;;;5.70;2.60;;;;;;;16.87;74.75;99667.09;5043788;28;20032;-73
2023/03/30 12:08:22;;;;;;;10.50;3.15;;;;;;;16.85;74.68;99651.19;5063706;28;20029;-74
2023/03/30 12:11:14;;;;;;;8.45;2.78;;;;;;;17.05;73.61;99649.38;5064966;28;20635;-74